createdAt,value
2023-03-06T00:01:19.426Z,96024.98
2023-03-06T00:03:50.262Z,96026.05
2023-03-06T00:06:22.480Z,96024.73
2023-03-06T00:09:06.565Z,96026.89
2023-03-06T00:11:39.013Z,96027.05
2023-03-06T00:17:02.196Z,96025.73
2023-03-06T00:19:31.409Z,96024.21
2023-03-06T00:22:01.589Z,96020.38
2023-03-06T00:24:30.312Z,96019.70
2023-03-06T00:26:58.957Z,96020.45
2023-03-06T00:29:27.960Z,96019.77
2023-03-06T00:31:56.960Z,96017.50
2023-03-06T00:34:28.662Z,96016.39
2023-03-06T00:36:57.072Z,96016.73
2023-03-06T00:39:25.512Z,96014.60
2023-03-06T00:41:55.918Z,96011.88
2023-03-06T00:44:26.498Z,96007.40
2023-03-06T00:46:55.937Z,96012.58
2023-03-06T00:49:31.142Z,96012.30
2023-03-06T00:52:00.132Z,96012.85
2023-03-06T00:54:30.052Z,96011.20
2023-03-06T00:57:00.240Z,96016.21
2023-03-06T00:59:29.625Z,96014.96
2023-03-06T01:01:59.200Z,96019.06
2023-03-06T01:04:29.048Z,96020.93
2023-03-06T01:07:07.008Z,96026.09
2023-03-06T01:09:39.450Z,96021.38
2023-03-06T01:12:18.875Z,96022.74
2023-03-06T01:14:48.400Z,96017.58
2023-03-06T01:17:20.225Z,96021.80
2023-03-06T01:19:48.732Z,96025.25
2023-03-06T01:22:18.765Z,96027.29
2023-03-06T01:24:50.270Z,96029.45
2023-03-06T01:27:20.508Z,96032.17
2023-03-06T01:29:49.747Z,96032.04
2023-03-06T01:32:18.767Z,96029.38
2023-03-06T01:34:47.278Z,96034.00
2023-03-06T01:37:18.143Z,96029.02
2023-03-06T01:40:00.429Z,96025.17
2023-03-06T01:42:32.062Z,96024.27
2023-03-06T01:45:14.603Z,96027.27
2023-03-06T01:47:44.983Z,96024.04
2023-03-06T01:50:14.612Z,96025.56
2023-03-06T01:52:49.610Z,96030.02
2023-03-06T01:55:36.918Z,96029.30
2023-03-06T01:58:11.251Z,96028.31
2023-03-06T02:00:39.965Z,96027.36
2023-03-06T02:03:19.288Z,96030.75
2023-03-06T02:05:48.103Z,96029.98
2023-03-06T02:08:19.618Z,96030.71
2023-03-06T02:11:15.160Z,96031.94
2023-03-06T02:13:50.352Z,96030.58
2023-03-06T02:16:33.503Z,96033.27
2023-03-06T02:19:14.219Z,96031.41
2023-03-06T02:21:43.664Z,96033.73
2023-03-06T02:24:33.357Z,96029.88
2023-03-06T02:27:07.474Z,96034.19
2023-03-06T02:29:55.533Z,96034.23
2023-03-06T02:32:24.109Z,96035.67
2023-03-06T02:34:58.310Z,96033.79
2023-03-06T02:37:32.277Z,96036.73
2023-03-06T02:40:16.352Z,96033.83
2023-03-06T02:42:56.642Z,96035.70
2023-03-06T02:45:47.700Z,96033.73
2023-03-06T02:48:17.731Z,96030.73
2023-03-06T02:50:54.414Z,96033.36
2023-03-06T02:53:23.172Z,96032.10
2023-03-06T02:55:52.063Z,96036.38
2023-03-06T02:58:22.364Z,96035.35
2023-03-06T03:00:51.410Z,96034.27
2023-03-06T03:03:21.907Z,96038.83
2023-03-06T03:05:54.152Z,96038.86
2023-03-06T03:08:29.155Z,96035.58
2023-03-06T03:11:01.964Z,96036.33
2023-03-06T03:13:42.996Z,96039.27
2023-03-06T03:16:20.494Z,96036.30
2023-03-06T03:18:51.556Z,96038.22
2023-03-06T03:21:24.701Z,96034.61
2023-03-06T03:24:00.128Z,96035.14
2023-03-06T03:26:41.131Z,96034.43
2023-03-06T03:29:17.353Z,96034.29
2023-03-06T03:31:48.236Z,96030.73
2023-03-06T03:37:09.627Z,96033.77
2023-03-06T03:39:40.229Z,96035.51
2023-03-06T03:42:17.403Z,96040.17
2023-03-06T03:44:46.212Z,96041.04
2023-03-06T03:47:14.617Z,96038.61
2023-03-06T03:49:43.261Z,96033.89
2023-03-06T03:52:12.074Z,96033.82
2023-03-06T03:54:44.551Z,96035.09
2023-03-06T03:57:13.550Z,96032.73
2023-03-06T03:59:52.517Z,96036.85
2023-03-06T04:02:44.282Z,96035.23
2023-03-06T04:05:35.890Z,96040.61
2023-03-06T04:08:22.445Z,96043.09
2023-03-06T04:10:55.179Z,96041.67
2023-03-06T04:13:52.540Z,96047.33
2023-03-06T04:19:18.695Z,96050.60
2023-03-06T04:21:47.163Z,96050.58
2023-03-06T04:24:15.797Z,96052.88
2023-03-06T04:26:44.182Z,96057.61
2023-03-06T04:29:12.890Z,96054.05
2023-03-06T04:31:41.357Z,96052.89
2023-03-06T04:34:10.212Z,96053.23
2023-03-06T04:36:38.865Z,96052.84
2023-03-06T04:39:09.987Z,96057.21
2023-03-06T04:41:38.717Z,96054.95
2023-03-06T04:44:07.387Z,96051.67
2023-03-06T04:46:38.775Z,96051.98
2023-03-06T04:49:07.644Z,96054.01
2023-03-06T04:51:40.292Z,96051.50
2023-03-06T04:54:08.621Z,96050.05
2023-03-06T04:56:36.923Z,96046.98
2023-03-06T04:59:05.541Z,96046.57
2023-03-06T05:01:33.826Z,96055.39
2023-03-06T05:04:02.210Z,96055.71
2023-03-06T05:06:30.757Z,96055.42
2023-03-06T05:08:59.237Z,96056.14
2023-03-06T05:11:27.631Z,96058.23
2023-03-06T05:13:55.804Z,96062.77
2023-03-06T05:16:28.868Z,96064.92
2023-03-06T05:18:57.321Z,96067.20
2023-03-06T05:21:25.739Z,96070.05
2023-03-06T05:23:54.260Z,96072.09
2023-03-06T05:26:22.904Z,96075.71
2023-03-06T05:28:51.419Z,96075.06
2023-03-06T05:31:20.015Z,96078.38
2023-03-06T05:33:49.157Z,96081.67
2023-03-06T05:36:18.369Z,96083.00
2023-03-06T05:38:46.978Z,96081.12
2023-03-06T05:41:15.479Z,96086.95
2023-03-06T05:43:44.165Z,96087.22
2023-03-06T05:46:12.766Z,96087.98
2023-03-06T05:48:41.156Z,96088.68
2023-03-06T05:51:11.162Z,96088.00
2023-03-06T05:53:44.846Z,96092.52
2023-03-06T05:56:13.724Z,96095.30
2023-03-06T05:58:51.026Z,96100.52
2023-03-06T06:01:21.043Z,96104.04
2023-03-06T06:03:49.531Z,96102.77
2023-03-06T06:06:18.358Z,96103.24
2023-03-06T06:08:46.835Z,96100.79
2023-03-06T06:14:12.256Z,96099.08
2023-03-06T06:16:50.638Z,96100.99
2023-03-06T06:19:20.336Z,96097.92
2023-03-06T06:21:54.253Z,96101.17
2023-03-06T06:24:24.956Z,96105.30
2023-03-06T06:26:55.222Z,96107.34
2023-03-06T06:29:36.548Z,96107.23
2023-03-06T06:32:05.162Z,96108.23
2023-03-06T06:34:33.430Z,96112.98
2023-03-06T06:37:01.805Z,96114.38
2023-03-06T06:39:30.588Z,96112.46
2023-03-06T06:42:28.195Z,96116.35
2023-03-06T06:44:51.644Z,96122.46
2023-03-06T06:47:23.535Z,96112.73
2023-03-06T06:50:01.629Z,96113.80
2023-03-06T06:52:29.931Z,96122.14
2023-03-06T06:55:07.356Z,96119.44
2023-03-06T06:57:38.204Z,96116.69
2023-03-06T07:00:11.357Z,96120.59
2023-03-06T07:02:49.247Z,96127.25
2023-03-06T07:05:27.577Z,96124.92
2023-03-06T07:07:55.924Z,96119.67
2023-03-06T07:10:24.189Z,96117.31
2023-03-06T07:12:59.174Z,96120.44
2023-03-06T07:15:30.083Z,96126.49
2023-03-06T07:17:58.648Z,96130.48
2023-03-06T07:20:32.183Z,96132.98
2023-03-06T07:23:00.579Z,96130.21
2023-03-06T07:25:28.930Z,96130.02
2023-03-06T07:27:57.294Z,96134.30
2023-03-06T07:30:26.040Z,96136.48
2023-03-06T07:32:56.350Z,96135.90
2023-03-06T07:35:25.505Z,96139.05
2023-03-06T07:37:58.658Z,96138.91
2023-03-06T07:40:27.237Z,96144.45
2023-03-06T07:43:09.189Z,96143.14
2023-03-06T07:45:44.129Z,96146.83
2023-03-06T07:48:14.038Z,96148.94
2023-03-06T07:50:43.006Z,96143.01
2023-03-06T07:53:11.702Z,96143.11
2023-03-06T07:55:44.391Z,96137.02
2023-03-06T07:58:12.764Z,96137.90
2023-03-06T08:00:42.166Z,96139.52
2023-03-06T08:03:14.165Z,96141.63
2023-03-06T08:05:45.102Z,96141.14
2023-03-06T08:08:14.837Z,96144.55
2023-03-06T08:10:51.726Z,96144.15
2023-03-06T08:13:39.928Z,96139.71
2023-03-06T08:16:12.676Z,96141.25
2023-03-06T08:18:45.854Z,96141.07
2023-03-06T08:21:17.513Z,96144.83
2023-03-06T08:23:46.862Z,96140.65
2023-03-06T08:26:20.770Z,96137.43
2023-03-06T08:28:50.705Z,96139.45
2023-03-06T08:31:25.170Z,96139.77
2023-03-06T08:33:57.579Z,96144.70
2023-03-06T08:36:26.867Z,96142.09
2023-03-06T08:39:10.540Z,96149.34
2023-03-06T08:41:39.015Z,96140.93
2023-03-06T08:44:21.068Z,96148.16
2023-03-06T08:46:49.542Z,96149.15
2023-03-06T08:49:18.090Z,96154.25
2023-03-06T08:51:47.577Z,96153.95
2023-03-06T08:54:16.068Z,96155.42
2023-03-06T08:56:44.761Z,96155.14
2023-03-06T08:59:14.070Z,96148.67
2023-03-06T09:01:49.090Z,96149.96
2023-03-06T09:04:26.392Z,96146.01
2023-03-06T09:06:55.639Z,96145.70
2023-03-06T09:09:24.234Z,96143.20
2023-03-06T09:11:53.784Z,96142.03
2023-03-06T09:14:28.093Z,96143.54
2023-03-06T09:16:56.499Z,96145.45
2023-03-06T09:19:25.004Z,96141.51
2023-03-06T09:21:54.208Z,96141.10
2023-03-06T09:24:24.796Z,96137.73
2023-03-06T09:26:53.347Z,96139.33
2023-03-06T09:29:22.255Z,96143.21
2023-03-06T09:31:50.627Z,96147.59
2023-03-06T09:34:20.275Z,96146.63
2023-03-06T09:36:56.900Z,96146.84
2023-03-06T09:39:27.418Z,96146.71
2023-03-06T09:42:06.601Z,96149.90
2023-03-06T09:44:38.269Z,96147.07
2023-03-06T09:47:40.102Z,96145.69
2023-03-06T09:50:37.151Z,96142.92
2023-03-06T09:53:24.257Z,96138.19
2023-03-06T09:56:03.882Z,96131.98
2023-03-06T09:58:40.465Z,96137.95
2023-03-06T10:01:34.985Z,96140.24
2023-03-06T10:04:38.595Z,96137.35
2023-03-06T10:07:19.256Z,96141.09
2023-03-06T10:10:11.442Z,96137.27
2023-03-06T10:12:53.670Z,96138.16
2023-03-06T10:15:33.657Z,96129.70
2023-03-06T10:18:03.688Z,96132.70
2023-03-06T10:20:49.836Z,96136.51
2023-03-06T10:23:27.457Z,96135.21
2023-03-06T10:25:58.371Z,96127.91
2023-03-06T10:28:35.575Z,96127.67
2023-03-06T10:31:14.736Z,96121.58
2023-03-06T10:34:09.199Z,96120.14
2023-03-06T10:37:05.414Z,96116.33
2023-03-06T10:40:03.202Z,96113.85
2023-03-06T10:42:31.513Z,96113.96
2023-03-06T10:45:15.204Z,96111.56
2023-03-06T10:47:47.298Z,96109.64
2023-03-06T10:50:35.199Z,96101.67
2023-03-06T10:53:06.572Z,96102.81
2023-03-06T10:55:37.927Z,96097.66
2023-03-06T10:58:30.021Z,96096.17
2023-03-06T11:01:20.011Z,96088.81
2023-03-06T11:03:48.919Z,96085.50
2023-03-06T11:06:35.695Z,96085.00
2023-03-06T11:09:36.806Z,96079.19
2023-03-06T11:12:34.871Z,96070.61
2023-03-06T11:15:17.897Z,96070.13
2023-03-06T11:17:51.518Z,96064.55
2023-03-06T11:20:51.994Z,96062.73
2023-03-06T11:23:29.915Z,96071.85
2023-03-06T11:26:18.068Z,96063.91
2023-03-06T11:29:01.822Z,96061.32
2023-03-06T11:31:49.795Z,96056.67
2023-03-06T11:34:37.165Z,96056.64
2023-03-06T11:37:31.378Z,96054.46
2023-03-06T11:40:36.696Z,96052.73
2023-03-06T11:43:23.861Z,96047.68
2023-03-06T11:46:24.939Z,96037.36
2023-03-06T11:49:33.358Z,96035.14
2023-03-06T11:52:12.867Z,96033.16
2023-03-06T11:54:55.660Z,96032.73
2023-03-06T11:57:37.422Z,96026.21
2023-03-06T12:00:29.878Z,96027.45
2023-03-06T12:03:42.198Z,96021.56
2023-03-06T12:06:36.580Z,96014.51
2023-03-06T12:09:21.824Z,96013.45
2023-03-06T12:12:06.408Z,96011.04
2023-03-06T12:14:53.733Z,96013.10
2023-03-06T12:17:34.126Z,96006.89
2023-03-06T12:20:31.436Z,96004.99
2023-03-06T12:23:16.014Z,96002.43
2023-03-06T12:25:56.050Z,96003.48
2023-03-06T12:29:11.521Z,96008.05
2023-03-06T12:32:35.971Z,96004.80
2023-03-06T12:38:23.481Z,95999.45
2023-03-06T12:41:06.528Z,95999.08
2023-03-06T12:44:22.967Z,95998.64
2023-03-06T12:48:25.906Z,95996.77
2023-03-06T12:50:54.238Z,95992.22
2023-03-06T12:53:31.130Z,95991.98
2023-03-06T12:56:02.191Z,95989.79
2023-03-06T12:58:31.845Z,95981.92
2023-03-06T13:01:15.589Z,95982.27
2023-03-06T13:04:13.634Z,95981.84
2023-03-06T13:07:14.199Z,95983.62
2023-03-06T13:10:11.781Z,95975.76
2023-03-06T13:13:17.135Z,95974.52
2023-03-06T13:16:04.434Z,95965.25
2023-03-06T13:18:32.754Z,95959.05
2023-03-06T13:21:01.488Z,95957.88
2023-03-06T13:23:35.308Z,95950.02
2023-03-06T13:26:08.637Z,95945.81
2023-03-06T13:28:58.310Z,95941.34
2023-03-06T13:31:32.808Z,95934.99
2023-03-06T13:34:05.698Z,95925.69
2023-03-06T13:36:38.338Z,95924.34
2023-03-06T13:39:11.599Z,95925.83
2023-03-06T13:41:58.459Z,95927.92
2023-03-06T13:44:26.737Z,95922.87
2023-03-06T13:47:39.748Z,95926.54
2023-03-06T13:50:27.091Z,95921.77
2023-03-06T13:53:16.980Z,95920.61
2023-03-06T13:56:04.499Z,95920.42
2023-03-06T13:58:57.978Z,95921.29
2023-03-06T14:01:59.055Z,95919.95
2023-03-06T14:04:36.345Z,95913.74
2023-03-06T14:07:23.566Z,95911.21
2023-03-06T14:10:00.111Z,95906.62
2023-03-06T14:12:42.322Z,95902.35
2023-03-06T14:15:24.722Z,95898.96
2023-03-06T14:18:00.552Z,95902.67
2023-03-06T14:20:58.177Z,95904.89
2023-03-06T14:23:38.380Z,95907.55
2023-03-06T14:26:19.442Z,95903.95
2023-03-06T14:28:54.326Z,95901.30
2023-03-06T14:31:29.065Z,95902.04
2023-03-06T14:34:04.974Z,95902.27
2023-03-06T14:36:51.678Z,95898.94
2023-03-06T14:39:20.058Z,95896.47
2023-03-06T14:41:49.560Z,95897.58
2023-03-06T14:44:23.676Z,95897.34
2023-03-06T14:46:56.317Z,95898.20
2023-03-06T14:49:28.854Z,95897.27
2023-03-06T14:52:01.987Z,95899.53
2023-03-06T14:54:34.531Z,95898.38
2023-03-06T14:57:08.736Z,95898.57
2023-03-06T14:59:52.348Z,95896.77
2023-03-06T15:02:27.667Z,95892.62
2023-03-06T15:05:15.136Z,95892.75
2023-03-06T15:07:44.161Z,95893.25
2023-03-06T15:10:24.767Z,95891.46
2023-03-06T15:12:56.281Z,95896.57
2023-03-06T15:15:31.446Z,95897.70
2023-03-06T15:18:00.192Z,95895.50
2023-03-06T15:20:42.647Z,95895.23
2023-03-06T15:23:18.709Z,95895.23
2023-03-06T15:25:51.756Z,95899.62
2023-03-06T15:28:28.530Z,95898.36
2023-03-06T15:31:05.660Z,95897.42
2023-03-06T15:33:34.476Z,95900.09
2023-03-06T15:36:07.238Z,95895.11
2023-03-06T15:38:45.171Z,95897.05
2023-03-06T15:41:43.475Z,95893.52
2023-03-06T15:44:16.850Z,95890.22
2023-03-06T15:46:45.554Z,95894.83
2023-03-06T15:49:17.078Z,95897.79
2023-03-06T15:51:47.810Z,95896.27
2023-03-06T15:54:16.475Z,95896.90
2023-03-06T15:56:47.473Z,95898.48
2023-03-06T15:59:26.878Z,95897.45
2023-03-06T16:01:55.214Z,95896.41
2023-03-06T16:04:23.856Z,95897.93
2023-03-06T16:06:52.233Z,95902.68
2023-03-06T16:09:23.924Z,95901.00
2023-03-06T16:11:52.375Z,95902.83
2023-03-06T16:14:24.107Z,95899.65
2023-03-06T16:16:56.771Z,95897.15
2023-03-06T16:19:27.802Z,95898.61
2023-03-06T16:21:56.996Z,95903.44
2023-03-06T16:24:26.906Z,95897.23
2023-03-06T16:26:56.873Z,95895.98
2023-03-06T16:29:29.289Z,95896.60
2023-03-06T16:31:59.048Z,95900.98
2023-03-06T16:34:28.178Z,95906.31
2023-03-06T16:36:56.996Z,95896.82
2023-03-06T16:39:26.393Z,95899.03
2023-03-06T16:41:55.531Z,95903.34
2023-03-06T16:44:23.829Z,95904.19
2023-03-06T16:46:52.909Z,95901.03
2023-03-06T16:49:24.670Z,95896.67
2023-03-06T16:51:53.978Z,95900.17
2023-03-06T16:54:26.348Z,95895.70
2023-03-06T16:56:57.326Z,95891.94
2023-03-06T16:59:25.764Z,95892.48
2023-03-06T17:01:56.690Z,95894.25
2023-03-06T17:04:25.029Z,95895.19
2023-03-06T17:06:53.439Z,95894.73
2023-03-06T17:09:23.129Z,95891.05
2023-03-06T17:11:51.469Z,95889.13
2023-03-06T17:14:20.048Z,95886.98
2023-03-06T17:16:48.384Z,95886.54
2023-03-06T17:19:16.730Z,95886.52
2023-03-06T17:21:45.129Z,95884.14
2023-03-06T17:24:16.006Z,95880.19
2023-03-06T17:26:48.557Z,95875.26
2023-03-06T17:29:17.036Z,95873.88
2023-03-06T17:31:46.925Z,95870.14
2023-03-06T17:34:15.374Z,95864.32
2023-03-06T17:36:44.819Z,95866.41
2023-03-06T17:39:19.979Z,95866.75
2023-03-06T17:41:49.335Z,95860.85
2023-03-06T17:44:20.179Z,95859.23
2023-03-06T17:46:51.415Z,95854.36
2023-03-06T17:49:22.473Z,95853.11
2023-03-06T17:51:56.690Z,95852.84
2023-03-06T17:54:26.980Z,95856.88
2023-03-06T17:57:11.886Z,95853.11
2023-03-06T18:00:00.349Z,95852.16
2023-03-06T18:02:45.814Z,95849.27
2023-03-06T18:05:23.065Z,95847.68
2023-03-06T18:07:51.489Z,95847.71
2023-03-06T18:10:20.901Z,95848.07
2023-03-06T18:12:53.087Z,95849.17
2023-03-06T18:15:23.232Z,95846.35
2023-03-06T18:18:06.454Z,95845.48
2023-03-06T18:20:45.165Z,95841.61
2023-03-06T18:23:31.813Z,95837.30
2023-03-06T18:26:25.122Z,95839.27
2023-03-06T18:29:07.904Z,95840.66
2023-03-06T18:32:08.964Z,95841.58
2023-03-06T18:34:51.872Z,95839.98
2023-03-06T18:37:29.184Z,95834.79
2023-03-06T18:40:01.882Z,95836.83
2023-03-06T18:42:33.396Z,95836.73
2023-03-06T18:45:09.240Z,95833.35
2023-03-06T18:47:42.069Z,95833.42
2023-03-06T18:50:17.932Z,95830.23
2023-03-06T18:52:57.722Z,95827.08
2023-03-06T18:55:29.946Z,95830.33
2023-03-06T18:58:03.877Z,95828.52
2023-03-06T19:00:55.882Z,95829.65
2023-03-06T19:03:26.104Z,95827.06
2023-03-06T19:06:03.467Z,95826.02
2023-03-06T19:08:40.506Z,95822.56
2023-03-06T19:11:15.286Z,95822.80
2023-03-06T19:13:49.447Z,95820.66
2023-03-06T19:16:21.721Z,95820.36
2023-03-06T19:18:58.977Z,95817.19
2023-03-06T19:24:14.435Z,95811.88
2023-03-06T19:27:01.536Z,95813.09
2023-03-06T19:29:30.640Z,95814.02
2023-03-06T19:32:11.167Z,95815.32
2023-03-06T19:34:54.459Z,95811.67
2023-03-06T19:37:47.400Z,95803.68
2023-03-06T19:40:17.651Z,95805.84
2023-03-06T19:43:01.048Z,95798.87
2023-03-06T19:45:43.152Z,95804.42
2023-03-06T19:48:16.933Z,95802.98
2023-03-06T19:53:28.635Z,95800.73
2023-03-06T19:56:11.885Z,95796.06
2023-03-06T19:58:40.877Z,95790.90
2023-03-06T20:01:14.973Z,95782.92
2023-03-06T20:03:58.691Z,95779.52
2023-03-06T20:06:37.741Z,95777.45
2023-03-06T20:09:09.323Z,95777.92
2023-03-06T20:11:39.989Z,95775.09
2023-03-06T20:14:20.849Z,95775.48
2023-03-06T20:16:54.763Z,95770.64
2023-03-06T20:19:26.973Z,95766.80
2023-03-06T20:21:56.033Z,95764.79
2023-03-06T20:24:26.567Z,95762.43
2023-03-06T20:26:58.910Z,95756.70
2023-03-06T20:29:28.482Z,95755.52
2023-03-06T20:32:09.551Z,95753.63
2023-03-06T20:34:40.029Z,95751.95
2023-03-06T20:37:12.275Z,95749.40
2023-03-06T20:39:43.487Z,95745.23
2023-03-06T20:42:20.481Z,95741.70
2023-03-06T20:47:47.517Z,95742.91
2023-03-06T20:50:20.597Z,95733.77
2023-03-06T20:52:54.600Z,95733.91
2023-03-06T20:55:26.358Z,95734.65
2023-03-06T20:58:01.565Z,95734.94
2023-03-06T21:00:36.903Z,95731.41
2023-03-06T21:03:15.270Z,95729.05
2023-03-06T21:05:52.001Z,95727.48
2023-03-06T21:08:27.128Z,95735.73
2023-03-06T21:11:28.376Z,95728.39
2023-03-06T21:14:05.928Z,95730.75
2023-03-06T21:16:38.169Z,95727.02
2023-03-06T21:19:12.699Z,95729.36
2023-03-06T21:21:43.515Z,95727.15
2023-03-06T21:24:20.960Z,95726.48
2023-03-06T21:26:54.522Z,95725.47
2023-03-06T21:29:28.368Z,95729.70
2023-03-06T21:31:59.184Z,95728.20
2023-03-06T21:37:39.754Z,95726.91
2023-03-06T21:40:38.145Z,95730.95
2023-03-06T21:43:21.647Z,95729.30
2023-03-06T21:46:04.019Z,95733.17
2023-03-06T21:48:34.006Z,95739.71
2023-03-06T21:51:13.617Z,95736.09
2023-03-06T21:53:47.867Z,95735.05
2023-03-06T21:56:20.051Z,95733.34
2023-03-06T21:58:54.112Z,95732.33
2023-03-06T22:01:25.470Z,95731.79
2023-03-06T22:03:55.173Z,95730.55
2023-03-06T22:06:27.861Z,95721.77
2023-03-06T22:09:06.390Z,95719.69
2023-03-06T22:11:43.515Z,95725.48
2023-03-06T22:14:20.555Z,95727.73
2023-03-06T22:16:51.335Z,95725.20
2023-03-06T22:19:22.944Z,95721.29
2023-03-06T22:21:53.259Z,95722.02
2023-03-06T22:24:24.736Z,95717.63
2023-03-06T22:27:05.003Z,95708.87
2023-03-06T22:29:34.180Z,95704.97
2023-03-06T22:32:27.884Z,95705.51
2023-03-06T22:34:56.755Z,95704.23
2023-03-06T22:37:26.393Z,95705.34
2023-03-06T22:40:11.918Z,95707.62
2023-03-06T22:42:50.389Z,95702.50
2023-03-06T22:45:34.827Z,95703.63
2023-03-06T22:48:10.810Z,95708.00
2023-03-06T22:50:42.774Z,95708.31
2023-03-06T22:53:16.235Z,95710.08
2023-03-06T22:56:01.093Z,95711.66
2023-03-06T22:58:36.440Z,95717.86
2023-03-06T23:01:17.106Z,95716.32
2023-03-06T23:03:54.122Z,95717.84
2023-03-06T23:06:48.279Z,95721.73
2023-03-06T23:09:24.718Z,95727.38
2023-03-06T23:12:13.385Z,95727.60
2023-03-06T23:15:18.045Z,95726.52
2023-03-06T23:18:08.053Z,95735.19
2023-03-06T23:20:56.185Z,95736.94
2023-03-06T23:23:53.788Z,95737.69
2023-03-06T23:26:29.918Z,95738.87
2023-03-06T23:29:31.013Z,95740.11
2023-03-06T23:32:39.852Z,95739.59
2023-03-06T23:35:11.849Z,95737.81
2023-03-06T23:37:40.599Z,95743.08
2023-03-06T23:40:10.501Z,95746.71
2023-03-06T23:42:52.935Z,95749.95
2023-03-06T23:45:40.271Z,95745.80
2023-03-06T23:48:25.355Z,95747.21
2023-03-06T23:50:54.194Z,95748.05
2023-03-06T23:53:27.551Z,95753.54
2023-03-06T23:55:56.310Z,95756.52
2023-03-06T23:58:24.772Z,95755.09
